YPKG

Details ICAO YPKG (KGI)
Name Kalgoorlie-Boulder
Region Australia
Timezone Australia/Perth (UTC+8.0)
Plans Departing 36
Arriving 50
Stats Elevation 1,202 ft / 366 m (AMSL)
Location -30.789100° 121.463000°
Runways 2
Magnetic Variation 0.833° E
Sunrise 2018-10-19 21:11:37 UTC / 2018-10-20 05:11:37 Local
Sunset 2018-10-20 10:08:43 UTC / 2018-10-20 18:08:43 Local
Advertisement - Login to hide

Runways

ID Width Length Bearing (true/mag) Surface Threshold Overrun Markings Lighting
11 148 ft / 45 m 6,550 ft / 1,997 m 110.61° / 109.77° ASPHALT 0 ft / 0 m 0 ft / 0 m APP EDGE THRESHOLD
18 59 ft / 18 m 3,949 ft / 1,204 m 5.53° / 4.70° ASPHALT 0 ft / 0 m 0 ft / 0 m VISUAL EDGE THRESHOLD
29 148 ft / 45 m 6,550 ft / 1,997 m 290.60° / 289.76° ASPHALT 0 ft / 0 m 0 ft / 0 m APP EDGE THRESHOLD
36 59 ft / 18 m 3,949 ft / 1,204 m 185.53° / 184.70° ASPHALT 0 ft / 0 m 0 ft / 0 m VISUAL EDGE THRESHOLD

Map

Weather


0- 5 10 15 20 25 30 35+ Temperature / °C

Clouds and Precipitation
Forecast for 2018-10-20 06:00 UTC. Updated 5 hours ago

Ground ~20,000 ft ~40,000 ft Winds

METAR

YPKG 200730Z AUTO 34009KT 300V360 9999 // NCD 27/M01 Q1014 RF00.0/000.0

TAF

TAF YPKG 200524Z 2006/2106 33010KT CAVOK FM210000 27012KT CAVOK FM210300 27018G28KT CAVOK

Frequencies

Unicom 120.60 MHz ACTIVATE LIGHTS ONLY MULT
Unicom 126.60 MHz AIR BP UNIC
Unicom 122.10 MHz MELBOURNE CENTRE MULT
Warning: Do not use this data for real-world aviation or navigation. No guarantee of current accuracy is given.